Date,TemperatureHighF,TemperatureAvgF,TemperatureLowF,DewpointHighF,DewpointAvgF,DewpointLowF,HumidityHigh,HumidityAvg,HumidityLow,PressureMaxIn,PressureMinIn,WindSpeedMaxMPH,WindSpeedAvgMPH,GustSpeedMaxMPH,PrecipitationSumIn
2014-1-1,22.3,18.2,14.8,19.6,14.9,12.2,92,87,81,30.23,30.12,11,7,15,0.00
2014-1-2,15.1,9.9,-0.9,12.2,5.1,-4.9,89,81,69,30.53,30.23,10,5,16,0.00
2014-1-3,27.7,12.6,-9.3,17.3,5.3,-13.3,87,73,60,30.52,29.89,19,9,27,0.00
2014-1-4,38.6,28.1,17.6,28.2,20.4,15.1,90,73,62,30.07,29.86,14,9,23,0.00
2014-1-5,17.5,9.1,-2.9,15.1,3.4,-14.4,90,78,52,30.42,30.03,19,11,27,0.00
2014-1-6,-0.9,-6.2,-11.3,-11.6,-16.2,-20.3,72,61,53,30.53,30.42,11,7,20,0.00
2014-1-7,22.1,5.6,-7.1,9.5,-2.0,-13.9,77,71,56,30.47,30.20,10,4,13,0.00
2014-1-8,17.0,13.4,8.6,11.5,8.1,3.3,84,79,71,30.50,30.28,10,5,12,0.00
2014-1-9,30.3,21.7,13.6,28.8,18.9,9.1,94,89,82,30.47,30.12,8,4,11,0.00
2014-1-10,42.9,37.0,30.4,42.0,36.0,28.9,100,96,95,30.12,29.53,13,6,23,0.29
2014-1-11,43.1,36.4,27.0,37.2,32.0,25.0,96,84,66,29.92,29.54,12,6,19,0.00
2014-1-12,58.5,43.4,27.3,39.5,32.7,25.5,94,69,46,29.92,29.53,16,8,24,0.01
2014-1-13,48.5,38.7,28.8,37.1,31.7,24.8,87,77,59,29.85,29.56,9,2,15,0.00
2014-1-14,40.7,33.2,24.4,34.7,23.6,13.0,92,68,51,30.12,29.68,11,8,23,0.00
2014-1-15,29.5,22.1,15.0,16.9,12.8,8.7,76,67,54,30.25,29.87,13,7,20,0.00
2014-1-16,44.2,32.0,13.7,30.5,23.7,3.1,87,72,48,29.95,29.68,16,10,26,0.01
2014-1-17,23.3,15.4,10.9,11.9,7.7,3.3,82,71,60,30.12,29.94,11,5,22,0.00
2014-1-18,42.3,28.2,14.6,35.2,21.1,9.2,88,75,59,30.07,29.61,17,8,26,0.04
2014-1-19,51.9,35.3,19.5,31.2,24.2,15.2,86,66,43,30.06,29.70,22,12,27,0.00
2014-1-20,46.4,38.9,22.6,33.6,30.6,20.4,91,73,54,30.08,29.76,19,3,27,0.00
2014-1-21,22.5,10.4,3.7,20.1,3.9,-2.2,91,75,62,30.45,30.08,17,6,28,0.00
2014-1-22,28.0,17.7,2.6,16.2,9.3,-6.5,79,70,57,30.47,30.06,15,8,24,0.00
2014-1-23,11.8,3.3,-2.2,-1.0,-5.5,-9.3,77,66,51,30.79,30.47,14,5,20,0.00
2014-1-24,38.9,21.7,2.3,21.3,6.8,-4.1,74,54,40,30.70,29.66,24,15,35,0.00
2014-1-25,41.2,31.0,21.8,35.0,16.5,1.9,92,56,33,29.98,29.64,18,7,29,0.04
2014-1-26,52.0,38.2,14.3,34.2,23.8,-4.4,82,57,39,30.13,29.53,24,12,38,0.00
2014-1-27,14.0,7.1,1.3,-3.9,-6.7,-9.3,68,53,41,30.56,30.14,16,6,27,0.00
2014-1-28,18.4,7.5,-3.9,-0.1,-3.9,-9.0,81,61,40,30.57,30.36,10,4,16,0.00
2014-1-29,37.0,22.2,7.0,13.0,7.0,-0.9,76,54,32,30.36,29.97,16,9,22,0.00
2014-1-30,38.2,32.2,25.4,31.1,18.7,11.9,92,59,39,30.02,29.71,20,12,29,0.00
2014-1-31,25.4,18.0,16.0,18.7,14.1,12.5,92,85,73,30.17,29.99,11,7,13,0.00
2014-2-1,26.0,22.3,18.0,24.4,20.1,16.0,94,91,86,30.20,29.86,9,6,11,0.00
2014-2-2,22.4,10.9,2.3,19.1,4.4,-3.1,87,75,64,30.41,30.20,9,4,13,0.00
2014-2-3,23.5,9.9,-5.5,14.4,4.4,-9.1,88,79,62,30.47,30.35,5,1,8,0.11
2014-2-4,19.7,16.4,10.5,17.7,13.8,7.6,92,89,84,30.37,30.09,15,8,19,0.00
2014-2-5,17.4,11.2,1.6,15.2,6.8,-3.9,91,82,74,30.65,30.09,14,8,20,0.00
2014-2-6,12.5,2.5,-5.3,-0.3,-5.2,-10.1,81,70,55,30.68,30.53,7,3,11,0.00
2014-2-7,15.3,6.2,-6.3,7.2,-1.4,-11.8,81,71,56,30.54,30.32,9,3,11,0.00
2014-2-8,25.2,19.9,12.8,21.4,15.8,6.9,90,84,76,30.32,30.13,9,2,11,0.00
2014-2-9,24.3,17.0,5.4,20.7,10.7,-2.6,89,76,62,30.45,30.16,9,5,16,0.00
2014-2-10,11.4,3.7,-3.9,-0.9,-4.6,-8.6,81,68,53,30.58,30.45,6,2,13,0.00
2014-2-11,16.0,3.0,-9.7,3.8,-4.6,-13.6,84,71,53,30.60,30.36,4,1,6,0.00
2014-2-12,33.6,17.3,2.1,15.8,6.0,-4.8,82,62,45,30.37,30.01,10,3,13,0.01
2014-2-13,40.2,28.7,13.3,31.2,21.2,5.1,86,73,67,30.01,29.69,18,7,27,0.11
2014-2-14,29.4,19.0,9.0,24.4,14.8,4.1,91,83,75,30.14,29.64,14,5,19,0.00
2014-2-15,27.2,14.1,3.3,20.9,8.9,0.1,87,80,65,30.16,29.92,12,4,15,0.00
2014-2-16,31.3,26.9,24.3,26.6,22.0,19.3,87,82,70,30.27,29.99,10,6,15,0.07
2014-2-17,44.5,33.7,25.0,35.3,28.5,21.1,94,82,68,30.11,29.83,13,7,21,0.25
2014-2-18,56.6,45.2,35.2,35.5,30.5,26.2,73,57,37,29.98,29.67,18,10,26,0.03
2014-2-19,46.2,41.1,34.1,39.3,34.3,30.0,89,77,62,30.01,29.67,10,3,15,0.01
2014-2-20,63.0,39.8,35.6,58.1,35.9,25.9,97,86,68,29.67,29.12,30,10,41,0.19
2014-2-21,50.7,38.2,28.2,29.9,24.8,18.3,73,59,39,29.92,29.61,18,10,28,0.17
2014-2-22,41.6,35.2,27.7,32.5,26.3,16.0,84,70,56,30.13,29.91,12,6,28,0.00
2014-2-23,31.8,26.0,21.7,18.1,15.9,13.4,81,66,52,30.38,30.12,13,6,15,0.00
2014-2-24,26.9,24.5,20.3,18.9,16.1,13.2,82,70,58,30.41,30.27,9,3,10,0.00
2014-2-25,23.7,18.2,13.5,21.8,11.1,0.9,95,74,55,30.42,30.29,12,7,19,0.00
2014-2-26,24.9,15.8,3.5,14.1,2.8,-6.0,70,57,38,30.44,29.92,17,10,25,0.00
2014-2-27,25.0,16.5,10.9,14.6,1.2,-7.2,73,52,32,30.23,29.92,13,7,20,0.00
2014-2-28,46.4,30.2,11.4,26.7,15.9,2.5,79,57,37,30.13,29.89,15,6,21,0.00
2014-3-1,40.9,22.6,10.5,25.9,15.8,6.4,86,75,48,30.39,30.00,12,8,15,0.00
2014-3-2,10.5,4.2,-0.6,6.2,-3.7,-10.9,85,70,53,30.55,30.37,11,8,20,0.00
2014-3-3,17.6,6.1,-6.9,5.9,-5.2,-13.6,73,60,35,30.61,30.35,9,2,16,0.00
2014-3-4,38.2,24.5,10.1,23.5,14.3,4.6,80,66,47,30.36,30.10,10,3,12,0.00
2014-3-5,37.5,29.8,25.4,27.4,23.1,20.3,85,76,62,30.35,30.13,14,7,19,0.00
2014-3-6,44.4,32.0,21.4,30.6,24.7,18.9,92,75,53,30.33,30.03,7,2,13,0.00
2014-3-7,57.8,42.8,30.7,40.1,31.7,23.8,88,66,48,30.04,29.85,14,6,16,0.00
2014-3-8,36.7,34.1,30.4,33.6,30.2,25.5,90,86,78,30.32,30.01,8,5,13,0.00
2014-3-9,54.7,39.8,23.5,37.9,30.4,20.8,92,71,48,30.32,29.91,19,8,25,0.01
2014-3-10,63.0,51.7,43.4,43.2,38.0,32.3,73,60,45,29.91,29.67,16,9,31,0.00
2014-3-11,72.6,50.0,34.1,54.3,40.8,32.1,93,72,49,29.74,29.47,23,6,33,0.07
2014-3-12,39.8,34.6,29.9,33.5,27.4,23.8,99,76,56,30.16,29.73,14,9,22,0.07
2014-3-13,60.9,40.8,24.8,39.6,29.8,21.7,89,68,38,30.14,29.88,15,7,23,0.00
2014-3-25,34.7,29.2,21.9,14.0,12.2,10.2,69,50,38,30.30,30.27,10,3,22,0.00
2014-3-26,51.5,35.9,19.1,36.7,20.3,12.5,82,56,30,30.30,29.90,23,9,28,0.00
2014-3-27,57.2,47.3,39.1,52.8,42.5,36.1,91,83,74,29.90,29.38,21,13,29,0.00
2014-3-28,44.4,40.2,36.7,37.2,35.0,33.1,89,82,73,30.16,29.68,13,5,24,0.00
2014-3-29,49.4,39.9,36.0,35.3,32.8,30.9,88,76,56,30.27,30.15,9,4,12,0.00
2014-3-30,67.3,49.7,32.6,40.4,33.9,29.3,92,60,27,30.26,29.91,15,8,23,0.00
2014-3-31,70.1,56.9,49.1,48.1,41.7,33.7,75,58,39,29.92,29.61,24,13,34,0.00
2014-4-1,53.4,43.2,30.1,38.6,28.7,20.1,78,57,43,30.09,29.80,15,6,23,0.00
2014-4-2,48.0,44.4,41.0,47.2,40.9,34.3,97,88,70,30.07,29.80,13,8,19,0.00
2014-4-3,57.7,49.6,45.0,55.7,48.7,44.2,98,97,93,29.82,29.54,13,5,25,0.00
2014-4-4,57.2,41.5,36.3,55.2,34.4,28.8,95,76,64,30.15,29.57,18,9,28,0.00
2014-4-5,54.9,43.6,33.3,36.8,31.7,27.0,79,64,45,30.25,30.08,9,2,14,0.00
2014-4-6,61.0,48.2,38.5,42.1,36.3,32.4,85,65,38,30.10,29.84,10,3,13,0.00
2014-4-7,62.4,51.7,42.9,44.9,39.6,33.1,84,65,42,29.85,29.66,11,3,18,0.00
2014-4-8,59.4,51.1,42.1,44.0,37.2,31.0,85,61,36,30.03,29.75,12,5,19,0.00
2014-4-9,67.7,52.9,36.9,37.4,34.1,29.6,79,52,27,30.10,29.82,14,7,20,0.00
2014-4-10,68.1,60.2,52.5,48.8,39.2,26.8,60,46,34,29.99,29.69,16,7,25,0.00
2014-4-11,72.8,57.9,41.0,38.5,33.1,26.6,77,41,21,30.07,29.94,10,2,14,0.00
2014-4-12,82.3,68.8,50.6,62.0,54.6,36.9,84,62,47,29.94,29.57,20,11,25,0.00
2014-4-13,70.3,64.4,48.7,63.2,57.5,46.2,92,79,60,29.65,29.36,19,11,30,0.00
2014-4-14,48.7,37.1,31.4,46.1,32.3,23.7,95,83,63,30.14,29.50,15,9,22,0.00
2014-4-15,48.2,37.1,26.2,28.1,23.3,18.0,83,59,35,30.24,30.13,10,3,18,0.00
2014-4-16,61.2,47.4,36.4,36.3,30.2,25.1,69,53,32,30.14,29.92,21,14,31,0.00
2014-4-21,70.0,64.5,57.6,62.3,58.6,51.4,88,81,73,29.93,29.85,6,2,9,0.00
2014-4-22,64.3,55.3,45.0,51.4,38.5,33.8,81,55,35,30.08,29.93,9,5,15,0.00
2014-4-23,61.1,53.0,42.9,43.0,37.6,33.8,75,57,43,30.11,29.84,9,4,14,0.00
2014-4-24,63.9,57.0,51.5,55.9,45.7,36.9,94,68,44,29.84,29.53,14,6,20,0.00
2014-4-25,74.6,60.6,45.8,52.6,45.9,38.1,91,63,29,29.90,29.71,14,6,24,0.00
2014-4-26,79.1,65.3,54.4,54.9,47.2,42.8,76,54,31,29.84,29.65,15,5,18,0.00
2014-4-27,79.5,63.8,53.3,65.4,56.9,45.4,96,79,59,29.75,29.47,20,6,29,0.00
2014-4-28,71.7,61.8,53.9,61.4,54.2,42.8,95,77,56,29.50,29.27,19,9,29,0.00
2014-4-29,58.0,50.5,45.4,47.9,45.3,41.7,94,83,56,29.71,29.38,15,8,23,0.00
2014-4-30,54.4,45.9,41.1,45.2,39.3,35.6,89,78,61,29.88,29.71,16,7,24,0.00
2014-5-1,52.1,47.2,43.4,43.8,40.8,39.0,85,79,69,29.95,29.82,13,7,20,0.00
2014-5-2,64.8,54.2,46.1,46.8,42.6,40.4,85,67,42,29.95,29.75,13,7,20,0.00
2014-5-3,73.7,62.8,51.4,48.4,43.4,38.3,79,51,33,29.92,29.77,8,3,14,0.00
2014-5-4,71.7,61.4,48.8,49.9,46.3,42.7,86,59,43,29.98,29.80,14,6,20,0.00
2014-5-5,71.3,60.1,45.0,52.3,44.3,34.3,69,56,47,29.82,29.72,13,6,18,0.00
2014-5-6,82.0,66.2,51.5,63.7,53.0,42.2,73,63,49,29.81,29.56,10,5,18,0.00
2014-5-7,87.3,77.2,66.7,66.9,63.8,60.3,81,64,46,29.70,29.61,15,9,26,0.00
2014-5-8,81.0,72.2,67.4,66.8,64.2,60.6,85,76,60,29.79,29.68,16,9,21,0.00
2014-5-9,71.8,64.6,54.3,63.1,52.7,45.8,94,68,42,29.88,29.67,12,6,19,0.00
2014-5-10,80.2,65.1,50.6,60.6,52.0,46.0,92,66,35,29.93,29.74,11,3,15,0.00
2014-5-11,84.8,73.1,61.3,71.5,65.0,57.8,92,77,55,29.86,29.70,14,9,23,0.00
2014-5-12,85.5,74.2,60.6,71.1,67.6,58.8,95,81,59,29.86,29.67,15,9,24,0.00
2014-5-13,60.4,53.9,48.8,58.9,49.2,45.1,95,84,69,30.22,29.85,7,3,14,0.00
2014-5-14,53.5,49.8,45.2,45.6,41.5,37.2,89,74,55,30.24,30.07,9,3,13,0.00
2014-5-15,57.3,49.4,41.9,47.2,41.0,33.6,87,74,43,30.09,30.01,8,3,16,0.00
2014-5-16,54.8,46.2,37.6,42.3,38.4,34.8,92,75,50,30.13,30.04,9,3,13,0.00
2014-5-17,63.6,51.0,36.4,42.6,37.4,31.0,95,64,34,30.19,30.12,5,1,9,0.00
2014-5-18,68.8,56.7,42.9,47.0,42.5,38.3,84,61,37,30.23,30.08,10,4,16,0.00
2014-5-19,78.7,65.8,52.6,63.7,53.8,42.3,82,66,56,30.10,29.75,20,8,31,0.00
2014-5-20,84.3,74.3,64.9,68.9,64.4,58.8,83,72,59,29.85,29.75,14,7,19,0.00
2014-5-21,87.2,76.8,69.4,71.3,67.5,62.0,89,74,53,29.96,29.78,10,4,15,0.00
2014-5-22,71.5,63.3,58.4,62.4,55.4,52.1,95,76,56,30.22,29.96,9,2,12,0.00
2014-5-23,79.5,66.4,51.8,60.8,52.7,46.5,97,66,32,30.17,30.06,8,1,12,0.00
2014-5-24,77.2,66.8,54.0,60.9,55.9,48.1,89,69,49,30.14,30.03,8,1,11,0.00
2014-5-25,81.8,71.5,63.0,70.0,63.1,55.8,90,75,63,30.06,29.93,7,2,12,0.00
2014-5-26,83.9,71.4,64.7,71.3,66.5,62.8,95,85,61,30.00,29.91,13,5,18,0.00
2014-5-27,83.1,73.4,65.7,68.2,65.4,63.5,94,77,55,29.96,29.87,9,5,14,0.00
2014-5-28,86.3,74.7,62.8,69.3,65.9,61.1,96,76,52,29.93,29.85,7,1,12,0.00
2014-5-29,84.7,74.8,66.6,72.1,68.3,65.1,96,81,58,29.99,29.89,14,2,18,0.00
2014-5-30,82.8,73.1,65.2,71.7,68.3,63.9,97,85,65,30.06,29.99,10,2,15,0.00
2014-5-31,85.6,74.8,67.9,73.2,69.3,66.7,97,84,57,30.07,29.95,10,1,18,0.02
2014-6-1,87.4,77.6,67.6,73.2,69.3,66.1,96,77,55,29.98,29.78,14,7,23,0.00
2014-6-2,84.5,76.0,68.8,68.7,66.9,64.2,86,74,55,29.91,29.71,17,8,23,0.01
2014-6-3,89.0,77.7,65.9,71.1,67.5,64.2,95,73,47,29.98,29.69,16,3,25,0.01
2014-6-4,79.4,70.7,65.0,69.9,65.9,62.9,96,86,68,29.84,29.58,11,4,21,0.00
2014-6-5,73.8,67.3,63.2,64.3,61.7,59.3,93,83,69,29.96,29.69,9,2,22,0.00
2014-6-6,80.5,70.7,59.5,67.7,64.2,58.4,97,81,61,29.97,29.86,5,1,9,0.00
2014-6-7,72.3,67.0,62.7,70.1,64.8,60.3,96,93,88,29.92,29.64,11,3,20,0.00
2014-6-8,73.1,65.4,58.9,64.0,61.1,57.5,98,86,68,30.02,29.88,8,2,12,0.00
2014-6-9,77.0,67.3,60.2,64.6,60.9,56.2,96,81,58,29.97,29.77,8,3,16,0.00
2014-6-10,69.9,64.0,60.0,66.7,61.8,56.5,97,92,80,29.78,29.69,11,6,22,0.00
2014-6-11,74.6,66.3,61.5,66.1,62.7,60.3,97,89,72,29.81,29.70,6,2,11,0.00
2014-6-12,73.4,65.9,60.4,67.4,62.0,56.6,95,88,71,29.94,29.77,10,3,15,0.00
2014-6-13,75.2,64.4,54.5,58.3,51.5,45.3,85,66,40,30.09,29.94,9,1,12,0.00
2014-6-14,79.7,67.9,54.1,58.8,54.2,49.8,88,64,42,30.03,29.81,13,6,23,0.00
2014-6-15,81.8,73.7,65.8,68.8,64.2,55.3,89,73,60,29.95,29.68,14,8,20,0.00
2014-6-16,89.3,78.8,66.7,76.9,71.0,65.2,96,78,60,30.00,29.78,14,6,22,0.00
2014-6-17,88.8,79.8,67.7,75.9,71.7,64.0,91,77,65,29.95,29.78,16,8,24,0.00
2014-6-18,91.1,82.3,73.8,76.3,73.3,70.0,89,75,60,29.89,29.82,15,8,20,0.00
2014-6-19,89.0,79.1,70.7,77.4,72.7,68.2,96,82,62,29.98,29.88,16,5,23,0.00
2014-6-20,86.6,77.6,70.6,76.8,72.0,69.1,96,84,57,29.98,29.91,7,2,9,0.00
2014-6-21,88.8,75.9,69.0,75.7,70.2,64.4,95,83,61,29.93,29.81,18,3,27,0.00
2014-6-22,88.1,73.6,67.2,78.3,68.9,64.8,95,86,67,29.89,29.76,10,3,14,0.00
2014-6-23,78.5,72.7,67.4,71.8,69.2,65.9,97,89,78,29.86,29.74,9,2,13,0.00
2014-6-24,84.3,75.2,67.0,69.7,65.9,62.4,95,75,49,29.93,29.85,6,1,11,0.00
2014-6-25,86.5,76.6,66.0,71.4,65.0,61.5,91,70,45,30.01,29.93,4,0,6,0.00
2014-6-26,87.3,77.7,67.6,72.6,69.1,64.7,92,76,53,30.00,29.85,10,3,16,0.00
2014-6-27,87.8,76.6,69.2,75.6,70.4,67.2,94,82,64,29.91,29.82,9,5,15,0.00
2014-6-28,83.8,75.4,68.5,76.8,71.1,66.1,95,87,72,29.92,29.79,15,7,25,0.00
2014-6-29,86.5,76.8,66.2,77.9,72.1,64.8,96,86,73,29.95,29.78,12,7,18,0.00
2014-6-30,90.2,83.4,76.3,79.9,76.5,65.3,92,80,60,29.83,29.57,17,10,23,0.00
2014-7-11,85.0,81.4,77.8,75.1,74.5,73.2,88,80,70,30.03,29.97,9,3,18,0.00
2014-7-12,89.2,81.8,75.7,77.7,74.4,72.3,91,79,64,30.03,29.88,11,6,18,0.00
2014-7-13,85.4,78.2,71.0,73.8,71.2,67.2,96,80,56,29.97,29.86,12,1,16,0.00
2014-7-14,78.7,72.1,61.2,72.0,63.5,51.4,95,76,44,30.01,29.86,10,3,16,0.00
2014-7-15,69.6,62.7,54.0,56.8,53.5,50.0,91,73,55,30.06,29.99,9,3,14,0.00
2014-7-16,76.0,65.5,54.8,59.2,54.5,50.4,92,70,45,30.07,30.01,6,1,10,0.00
2014-7-17,79.2,66.6,53.7,62.2,57.2,52.0,97,74,45,30.09,30.03,6,1,11,0.00
2014-7-18,80.3,69.4,57.7,64.5,59.5,56.0,95,73,49,30.11,30.02,7,1,12,0.00
2014-7-19,81.0,69.4,56.8,65.3,60.2,55.1,96,75,46,30.05,29.97,6,1,8,0.00
2014-7-20,83.4,72.5,60.4,68.1,63.8,57.8,92,75,54,30.02,29.93,8,2,13,0.00
2014-7-21,87.4,76.4,63.5,72.7,67.9,61.6,95,77,58,30.04,29.95,11,5,16,0.00
2014-7-22,91.5,79.6,71.8,82.1,74.5,67.7,95,85,72,30.05,29.91,11,4,16,0.00
2014-7-23,81.8,75.7,66.8,78.7,68.2,60.4,95,78,60,30.11,29.97,11,5,15,0.00
2014-7-24,79.6,69.6,57.8,62.7,59.2,55.8,95,71,50,30.15,29.95,6,1,10,0.00
2014-7-25,79.6,68.0,61.5,72.0,63.1,56.3,95,84,75,30.05,29.79,17,4,25,0.00
2014-7-26,86.8,77.9,72.9,78.1,73.7,68.7,95,87,72,29.84,29.76,11,4,20,0.00
2014-7-27,84.0,76.2,66.0,75.9,67.2,60.0,97,76,46,30.01,29.78,10,3,21,0.00
2014-7-28,73.7,67.0,60.9,62.7,59.1,56.2,93,77,56,30.14,30.00,8,2,13,0.00
2014-7-29,78.0,67.1,56.8,63.2,58.6,55.1,96,76,48,30.14,30.04,5,1,8,0.00
2014-7-30,80.3,69.5,58.4,65.5,60.2,55.7,96,75,44,30.08,30.02,5,0,8,0.00
2014-7-31,82.3,70.6,57.6,66.9,61.9,56.1,97,76,50,30.08,30.01,2,0,5,0.00
2014-8-1,83.3,70.5,60.7,68.3,63.6,58.7,95,80,50,30.08,30.01,6,0,9,0.00
2014-8-2,82.4,70.3,57.6,69.0,63.1,56.5,97,80,53,30.15,30.05,5,0,8,0.00
2014-8-3,86.4,73.2,60.4,70.8,65.8,58.9,97,80,53,30.15,30.02,7,1,9,0.00
2014-8-4,84.7,73.1,62.6,72.4,67.3,60.3,93,83,60,30.07,29.95,8,2,13,0.00
2014-8-5,82.5,74.6,65.6,73.6,69.5,63.8,96,85,69,30.02,29.94,6,1,10,0.00
2014-8-6,78.4,72.0,65.9,71.8,68.8,64.7,97,90,78,30.08,29.93,8,2,13,0.01
2014-8-7,71.8,69.3,67.0,70.6,68.2,65.8,97,96,95,29.98,29.83,10,5,18,0.01
2014-8-8,71.7,68.9,66.6,69.9,67.8,65.5,98,96,94,29.97,29.86,8,4,10,0.01
2014-8-9,75.4,70.5,66.9,71.2,68.2,66.0,98,93,83,30.01,29.94,6,1,9,0.01
2014-8-10,77.8,72.1,67.8,71.7,68.7,66.6,97,89,78,30.02,29.92,10,1,13,0.00
2014-8-11,81.0,73.1,65.6,72.0,66.4,61.3,96,80,58,29.96,29.90,7,1,16,0.01
2014-8-12,77.0,68.0,59.9,62.1,59.5,56.5,92,76,50,30.03,29.94,8,2,13,0.01
2014-8-13,80.0,68.6,58.1,64.5,59.1,55.2,93,74,47,30.11,30.03,4,0,12,0.00
2014-8-14,83.3,71.4,59.4,69.0,63.1,56.6,93,77,51,30.08,29.98,3,0,7,0.00
2014-8-15,76.2,70.1,65.2,71.3,67.3,63.3,96,91,78,30.01,29.88,8,1,10,0.00
2014-8-16,76.4,70.6,67.1,72.7,68.7,65.3,97,94,85,29.89,29.77,13,5,19,0.01
2014-8-17,74.0,70.2,67.7,71.1,68.9,67.0,98,95,89,29.92,29.81,6,1,10,0.01
2014-8-18,81.8,73.9,66.8,74.4,70.6,65.7,98,90,74,29.91,29.76,5,1,10,0.00
2014-8-19,85.2,77.6,66.7,75.9,71.8,63.9,95,83,70,29.88,29.72,11,2,14,0.00
2014-8-20,87.0,76.9,69.4,78.2,72.9,68.2,98,88,72,29.93,29.79,7,1,11,0.00
2014-8-21,90.3,80.6,72.5,80.9,74.9,68.7,93,83,68,29.91,29.84,12,5,18,0.00
2014-8-22,87.5,80.9,74.9,79.4,75.7,72.3,95,85,73,29.94,29.85,9,3,13,0.00
2014-8-23,83.1,77.2,74.1,77.5,75.1,72.7,98,93,77,29.95,29.86,8,2,12,0.00
2014-10-5,64.9,64.8,64.8,46.3,46.1,45.7,51,51,50,29.67,29.67,5,5,5,0.00
2014-10-10,57.4,53.9,49.2,45.3,43.1,40.7,78,67,54,30.15,30.08,11,4,14,0.00
2014-10-11,62.4,50.0,41.0,45.9,40.8,36.7,95,73,39,30.23,30.09,6,1,13,0.00
2014-10-12,56.0,50.2,41.0,55.2,48.7,39.1,97,95,88,30.09,29.80,5,0,9,0.00
2014-10-13,70.2,60.9,54.8,66.0,59.1,53.9,100,94,82,29.81,29.37,12,4,18,0.00
2014-10-14,57.8,53.0,51.4,55.4,51.3,49.3,96,94,89,29.77,29.37,13,8,22,0.00
2014-10-15,66.3,55.1,47.6,49.4,45.2,41.2,95,71,42,29.89,29.76,10,4,19,0.00
2014-10-16,73.7,57.5,41.3,52.3,46.5,39.7,97,71,38,29.88,29.69,10,2,19,0.00
2014-10-17,65.3,57.6,49.9,52.2,47.2,43.1,81,69,53,30.02,29.70,8,2,18,0.00
2014-10-18,57.8,48.9,41.3,46.5,43.0,38.6,93,81,61,30.22,30.01,7,2,16,0.00
2014-10-19,64.6,50.9,37.6,48.2,43.7,36.4,97,78,50,30.22,29.96,9,3,15,0.00
2014-10-20,69.9,59.4,52.8,51.1,48.0,44.8,89,68,41,30.01,29.91,8,4,14,0.00
2014-10-21,64.5,53.6,44.2,48.4,44.5,40.7,91,72,51,30.19,30.00,8,2,14,0.00
2014-10-22,64.6,50.3,38.9,47.1,42.4,37.3,97,76,49,30.31,30.16,6,1,11,0.00
2014-10-23,60.4,52.3,45.4,54.6,47.7,41.3,94,84,71,30.18,30.04,9,4,15,0.00
2014-10-24,70.9,59.2,52.3,62.6,56.4,50.8,98,91,75,30.08,29.91,11,3,19,0.00
2014-10-25,78.2,65.0,54.3,61.2,53.0,44.8,98,70,36,30.04,29.94,3,0,8,0.00
2014-10-26,76.8,61.2,46.4,55.5,46.4,38.2,82,61,36,30.01,29.69,8,1,14,0.00
2014-10-27,79.0,69.0,62.9,62.0,59.9,55.6,85,73,52,29.72,29.55,16,7,26,0.00
2014-10-28,65.7,57.2,47.7,55.6,38.2,28.1,73,51,27,30.09,29.72,10,3,20,0.00
2014-10-29,55.7,45.7,37.9,37.9,35.5,33.2,84,68,49,30.21,30.09,7,1,15,0.00
2014-10-30,61.1,46.8,35.7,47.5,40.8,33.2,91,81,59,30.16,29.97,14,2,18,0.00
2014-10-31,49.4,40.3,30.9,44.1,27.5,20.1,84,61,43,30.45,30.10,15,7,24,0.00
2014-11-1,47.4,34.9,24.6,27.9,24.4,20.4,85,67,43,30.53,30.38,3,0,7,0.04
2014-11-2,55.6,44.6,32.9,31.8,29.2,25.3,75,56,38,30.38,30.10,16,9,25,0.00
2014-11-3,70.3,58.9,44.7,57.9,44.9,29.9,93,60,51,30.11,29.95,19,11,27,0.00
2014-11-4,59.6,49.9,43.9,57.5,45.0,39.1,95,83,70,30.17,29.94,12,4,16,0.00
2014-11-5,64.8,52.1,40.2,43.6,37.7,31.5,90,62,30,30.17,29.96,14,8,20,0.00
2014-11-6,52.3,44.4,35.6,42.8,33.5,28.8,77,66,49,30.31,29.98,15,6,26,0.00
2014-11-7,55.1,42.3,26.8,35.9,31.1,24.5,93,67,41,30.29,29.78,14,5,21,0.00
2014-11-8,50.9,45.1,33.6,41.9,33.0,28.4,83,63,45,30.09,29.78,19,5,24,0.01
2014-11-9,62.1,47.7,33.2,40.1,34.9,28.4,83,63,42,30.04,29.71,16,7,23,0.00
2014-11-10,72.3,57.8,44.7,48.0,43.1,37.4,76,60,39,29.72,29.39,20,9,26,0.00
2014-11-11,44.4,32.2,28.5,37.6,26.6,20.5,91,80,72,30.34,29.66,13,7,20,0.01
2014-11-12,29.0,25.5,21.7,20.8,14.7,10.6,73,64,53,30.48,30.32,9,4,14,0.00
2014-11-13,27.5,23.2,17.7,18.7,15.1,12.1,84,71,58,30.49,30.45,7,2,14,0.00
2014-11-14,32.7,23.1,15.0,18.2,13.9,11.3,92,69,45,30.50,30.38,6,1,11,0.00
2014-11-15,35.4,25.9,15.0,25.7,19.1,12.0,92,77,49,30.41,30.20,9,1,11,0.00
2014-11-16,30.4,25.9,16.4,27.3,22.0,9.9,93,85,73,30.21,30.05,5,2,9,0.00
2014-11-17,22.6,18.0,14.8,14.1,8.3,3.3,81,66,47,30.26,30.06,10,5,22,0.00
2014-11-18,28.0,19.5,11.1,17.0,8.7,4.5,77,63,46,30.33,29.98,10,6,18,0.00
2014-11-19,35.3,30.0,24.9,25.4,19.2,14.7,70,64,55,30.20,29.84,11,5,21,0.00
2014-11-20,35.5,26.5,20.5,18.5,15.7,13.0,82,64,45,30.37,30.18,6,1,13,0.00
2014-11-21,39.6,29.1,16.0,33.8,19.8,10.9,86,69,47,30.41,30.13,9,2,15,0.02
2014-11-22,58.6,52.2,38.8,52.0,47.6,33.9,90,85,78,30.13,29.74,14,9,20,0.00
2014-11-23,54.1,51.6,42.1,52.6,50.1,39.9,97,94,87,29.75,29.21,15,7,20,0.53
2014-11-24,41.8,34.0,31.1,39.9,28.2,23.0,95,79,71,29.99,29.26,15,7,28,0.01
2014-11-25,37.4,29.2,23.3,24.0,20.8,18.3,82,71,50,30.22,29.99,8,2,12,0.06
2014-11-26,32.4,30.0,25.3,31.0,27.1,19.4,96,89,77,30.32,29.95,9,3,12,0.00
2014-11-27,29.1,23.9,16.3,27.2,19.0,10.4,93,81,72,30.53,30.32,9,3,15,0.01
2014-11-28,52.3,35.9,20.4,39.0,29.1,16.6,92,77,58,30.39,29.76,13,7,18,0.06
2014-11-29,65.4,52.1,42.7,51.2,44.4,36.6,88,76,55,29.76,29.57,16,8,21,0.01
2014-11-30,53.6,35.2,20.1,45.7,30.2,14.0,94,82,72,30.42,29.61,12,7,18,0.00
2014-12-1,24.4,19.5,14.8,14.1,9.1,5.5,81,64,47,30.72,30.42,11,6,21,0.00
2014-12-2,32.2,24.0,14.3,25.0,18.3,9.9,88,79,66,30.53,30.12,10,4,14,0.00
2014-12-3,40.5,31.8,26.9,25.6,22.7,19.9,88,70,46,30.40,30.15,10,4,14,0.02
2014-12-4,34.4,32.1,27.8,33.4,27.6,21.2,96,84,69,30.37,30.17,6,1,9,0.00
2014-12-5,39.3,36.9,34.2,38.5,36.1,33.2,97,97,96,30.26,30.08,8,2,11,0.10
2014-12-6,37.5,33.9,29.4,36.7,32.7,27.9,97,95,91,30.62,30.27,8,3,11,0.04
2014-12-7,37.2,32.4,26.7,34.3,30.6,25.5,96,93,87,30.61,30.23,9,3,11,0.26
2014-12-8,48.2,40.6,34.4,41.5,36.5,27.6,96,86,69,30.26,30.11,9,4,15,0.06
2014-12-9,34.4,31.9,29.7,28.6,26.9,24.8,89,82,76,30.44,30.23,10,4,15,0.00
2014-12-10,34.9,32.4,30.7,30.9,28.6,26.4,92,86,80,30.41,30.29,5,0,9,0.00
2014-12-11,36.9,32.6,30.1,31.0,28.1,25.7,88,83,77,30.36,30.27,4,0,8,0.00
2014-12-12,48.6,40.1,34.2,43.3,36.2,30.8,91,86,77,30.36,30.25,8,1,11,0.00
2014-12-13,51.2,44.5,36.9,47.6,42.5,35.6,97,93,87,30.25,30.07,9,4,11,0.00
2014-12-14,62.3,52.5,47.5,54.4,49.8,46.3,98,91,75,30.08,29.85,11,5,13,0.00
2014-12-15,52.2,50.3,47.2,49.8,48.4,45.6,96,93,90,29.88,29.54,12,7,20,0.17